Time;durP1;ratioP1;P1;durP2;ratioP2;P2;SDS_P1;SDS_P2;PMS_P1;PMS_P2;Temp;Humidity;BMP_temperature;BMP_pressure;BME280_temperature;BME280_humidity;BME280_pressure;Samples;Min_cycle;Max_cycle;Signal;HPM_P1;HPM_P2
2023/09/24 00:00:20;;;;;;;28.75;26.58;;;12.00;99.90;;;;;;6214241;23;20008;-81
2023/09/24 00:02:46;;;;;;;26.13;24.23;;;12.00;99.90;;;;;;6214609;23;20134;-80
2023/09/24 00:05:13;;;;;;;28.20;25.98;;;12.00;99.90;;;;;;6215018;23;20047;-80
2023/09/24 00:07:38;;;;;;;28.33;25.90;;;12.00;99.90;;;;;;6241754;23;20075;-80
2023/09/24 00:10:04;;;;;;;31.30;28.48;;;12.00;99.90;;;;;;6213993;23;20043;-80
2023/09/24 00:12:30;;;;;;;29.50;27.20;;;11.90;99.90;;;;;;6214526;23;20016;-80
2023/09/24 00:14:56;;;;;;;28.83;26.70;;;11.90;99.90;;;;;;6213851;23;20036;-80
2023/09/24 00:17:22;;;;;;;32.58;30.50;;;11.90;99.90;;;;;;6240885;23;20016;-80
2023/09/24 00:19:47;;;;;;;33.85;31.13;;;11.80;99.90;;;;;;6213659;23;20015;-82
2023/09/24 00:22:13;;;;;;;34.05;31.45;;;11.70;99.90;;;;;;6213683;23;20465;-80
2023/09/24 00:24:39;;;;;;;34.90;32.10;;;11.70;99.90;;;;;;6213150;23;20004;-80
2023/09/24 00:27:05;;;;;;;35.55;32.78;;;11.60;99.90;;;;;;6214040;23;20066;-80
2023/09/24 00:29:31;;;;;;;36.63;33.90;;;12.00;99.90;;;;;;6213562;23;20008;-80
2023/09/24 00:31:56;;;;;;;33.35;31.15;;;12.20;99.90;;;;;;6213783;23;20019;-80
2023/09/24 00:34:22;;;;;;;40.35;37.28;;;11.50;99.90;;;;;;6213529;23;20012;-80
2023/09/24 00:36:50;;;;;;;34.90;32.50;;;11.40;99.90;;;;;;6213512;23;20010;-80
2023/09/24 00:39:16;;;;;;;42.05;39.20;;;11.30;99.90;;;;;;6212958;23;20020;-79
2023/09/24 00:41:45;;;;;;;35.88;33.40;;;11.30;99.90;;;;;;6240387;23;20012;-80
2023/09/24 00:44:14;;;;;;;39.88;37.13;;;11.20;99.90;;;;;;6213703;23;20035;-80
2023/09/24 00:46:43;;;;;;;47.45;44.30;;;11.20;99.90;;;;;;6213453;23;20012;-80
2023/09/24 00:49:09;;;;;;;42.13;39.13;;;11.10;99.90;;;;;;6240481;23;20012;-80
2023/09/24 00:51:35;;;;;;;37.00;34.50;;;11.10;99.90;;;;;;6213459;23;20008;-80
2023/09/24 00:54:01;;;;;;;41.75;38.95;;;11.10;99.90;;;;;;6212900;23;20119;-80
2023/09/24 00:56:27;;;;;;;45.70;42.47;;;11.00;99.90;;;;;;6213298;23;20012;-80
2023/09/24 00:58:54;;;;;;;48.15;44.90;;;11.00;99.90;;;;;;6213390;23;20493;-80
2023/09/24 01:01:24;;;;;;;46.35;43.30;;;10.90;99.90;;;;;;6213043;23;20004;-80
2023/09/24 01:03:53;;;;;;;43.85;40.80;;;10.90;99.90;;;;;;6213486;23;20018;-81
2023/09/24 01:06:19;;;;;;;53.40;49.40;;;10.90;99.90;;;;;;6213376;23;20016;-81
2023/09/24 01:08:45;;;;;;;45.30;41.97;;;10.80;99.90;;;;;;6212958;23;20012;-80
2023/09/24 01:11:11;;;;;;;41.15;38.25;;;10.80;99.90;;;;;;6213203;23;20050;-79
2023/09/24 01:13:39;;;;;;;39.40;36.70;;;10.80;99.90;;;;;;6213312;23;20008;-80
2023/09/24 01:16:09;;;;;;;43.08;40.30;;;10.70;99.90;;;;;;6213258;23;20008;-80
2023/09/24 01:18:39;;;;;;;39.30;36.47;;;10.70;99.90;;;;;;6213113;23;20016;-80
2023/09/24 01:21:13;;;;;;;41.72;38.90;;;10.70;99.90;;;;;;6213461;23;20014;-80
2023/09/24 01:23:40;;;;;;;48.88;45.58;;;10.70;99.90;;;;;;6212723;23;20012;-80
2023/09/24 01:26:08;;;;;;;41.88;38.85;;;10.70;99.90;;;;;;6213132;23;20019;-80
2023/09/24 01:28:34;;;;;;;48.83;45.47;;;10.70;99.90;;;;;;6213483;23;20040;-80
2023/09/24 01:31:01;;;;;;;40.30;37.17;;;10.80;99.90;;;;;;6213243;23;20050;-81
2023/09/24 01:33:26;;;;;;;40.15;37.25;;;10.60;99.90;;;;;;6213136;23;20012;-81
2023/09/24 01:35:52;;;;;;;47.65;44.40;;;10.60;99.90;;;;;;6213296;23;20023;-80
2023/09/24 01:38:18;;;;;;;41.70;38.78;;;10.60;99.90;;;;;;6237858;23;20019;-80
2023/09/24 01:40:44;;;;;;;45.40;41.45;;;10.80;99.90;;;;;;6238361;23;20016;-80
2023/09/24 01:43:10;;;;;;;47.92;44.80;;;10.60;99.90;;;;;;6213289;23;20012;-80
2023/09/24 01:45:40;;;;;;;53.55;50.28;;;10.50;99.90;;;;;;6212935;23;20008;-80
2023/09/24 01:48:09;;;;;;;49.22;45.15;;;10.50;99.90;;;;;;6213192;23;20017;-80
2023/09/24 01:50:36;;;;;;;47.70;44.65;;;10.50;99.90;;;;;;6188030;23;20062;-80
2023/09/24 01:53:04;;;;;;;56.40;52.47;;;10.40;99.90;;;;;;6212619;23;20018;-80
2023/09/24 01:55:31;;;;;;;45.75;42.90;;;10.40;99.90;;;;;;6213257;23;20012;-80
2023/09/24 01:57:59;;;;;;;44.53;41.42;;;10.40;99.90;;;;;;6213066;23;20034;-79
2023/09/24 02:00:25;;;;;;;46.10;43.15;;;10.40;99.90;;;;;;6213160;23;20335;-80
2023/09/24 02:02:59;;;;;;;39.20;36.58;;;10.40;99.90;;;;;;6187974;23;20016;-80
2023/09/24 02:05:25;;;;;;;;;;;10.40;99.90;;;;;;6213756;23;20012;-80
2023/09/24 02:07:51;;;;;;;48.92;45.75;;;10.50;99.90;;;;;;6187346;23;19916;-80
2023/09/24 02:10:17;;;;;;;48.55;44.85;;;10.30;99.90;;;;;;6188024;23;20053;-81
2023/09/24 02:12:44;;;;;;;47.15;43.63;;;10.30;99.90;;;;;;6213220;23;20016;-80
2023/09/24 02:15:15;;;;;;;44.10;41.17;;;10.30;99.90;;;;;;6187679;23;20016;-80
2023/09/24 02:17:41;;;;;;;52.08;48.88;;;10.30;99.90;;;;;;6213238;23;20020;-80
2023/09/24 02:22:57;;;;;;;46.53;43.22;;;10.20;99.90;;;;;;6241026;23;20020;-80
2023/09/24 02:25:32;;;;;;;46.58;42.97;;;10.20;99.90;;;;;;6214971;23;20058;-80
2023/09/24 02:27:58;;;;;;;60.30;55.92;;;10.10;99.90;;;;;;6214927;23;20004;-80
2023/09/24 02:30:27;;;;;;;47.35;43.92;;;10.10;99.90;;;;;;6214764;23;20023;-80
2023/09/24 02:32:53;;;;;;;48.67;45.30;;;10.10;99.90;;;;;;6214775;23;20016;-80
2023/09/24 02:35:19;;;;;;;49.65;46.20;;;10.10;99.90;;;;;;6214176;23;20016;-80
2023/09/24 02:37:47;;;;;;;43.70;40.38;;;10.10;99.90;;;;;;6214884;23;20088;-79
2023/09/24 02:40:18;;;;;;;56.40;52.53;;;10.10;99.90;;;;;;6214737;23;20013;-80
2023/09/24 02:42:48;;;;;;;52.63;48.97;;;10.10;99.90;;;;;;6214923;23;20016;-80
2023/09/24 02:45:15;;;;;;;55.90;51.92;;;10.60;99.90;;;;;;6214843;23;20009;-80
2023/09/24 02:47:42;;;;;;;44.53;41.20;;;10.00;99.90;;;;;;6214659;23;20047;-80
2023/09/24 02:50:12;;;;;;;56.42;51.88;;;10.00;99.90;;;;;;6241450;23;20047;-80
2023/09/24 02:52:42;;;;;;;49.85;46.38;;;10.00;99.90;;;;;;6214604;23;20052;-79
2023/09/24 02:55:11;;;;;;;49.25;45.58;;;10.00;99.90;;;;;;6241863;23;20019;-80
2023/09/24 02:57:37;;;;;;;47.55;44.28;;;10.00;99.90;;;;;;6241544;23;20130;-80
2023/09/24 03:00:11;;;;;;;49.40;46.10;;;9.90;99.90;;;;;;6214493;23;20015;-80
2023/09/24 03:02:37;;;;;;;46.78;43.75;;;9.90;99.90;;;;;;6214827;23;20008;-80
2023/09/24 03:05:08;;;;;;;55.53;52.00;;;9.90;99.90;;;;;;6213977;23;20045;-80
2023/09/24 03:07:36;;;;;;;51.83;48.10;;;9.90;99.90;;;;;;6214572;23;20019;-79
2023/09/24 03:10:06;;;;;;;41.25;38.45;;;9.90;99.90;;;;;;6189614;23;20086;-80
2023/09/24 03:12:31;;;;;;;45.58;41.70;;;9.90;99.90;;;;;;6241434;23;20332;-80
2023/09/24 03:14:57;;;;;;;44.08;40.83;;;9.90;99.90;;;;;;6209222;23;20147;-79
2023/09/24 03:17:23;;;;;;;51.47;46.42;;;10.00;99.90;;;;;;6209479;23;20023;-80
2023/09/24 03:19:48;;;;;;;45.72;41.95;;;10.00;99.90;;;;;;6210172;23;20012;-79
2023/09/24 03:22:14;;;;;;;39.63;35.67;;;10.00;99.90;;;;;;6209604;23;20009;-80
2023/09/24 03:24:39;;;;;;;50.50;45.85;;;10.10;99.90;;;;;;6211001;23;20044;-80
2023/09/24 03:27:05;;;;;;;45.78;41.03;;;10.10;99.90;;;;;;6235072;23;20019;-79
2023/09/24 03:29:31;;;;;;;56.85;40.92;;;10.20;99.90;;;;;;6234609;23;20021;-80
2023/09/24 03:31:57;;;;;;;40.08;36.22;;;10.20;99.90;;;;;;6209055;23;20080;-80
2023/09/24 03:34:22;;;;;;;41.65;38.17;;;10.20;99.90;;;;;;6208083;23;20012;-80
2023/09/24 03:36:48;;;;;;;42.10;38.75;;;11.10;99.90;;;;;;6234242;23;20020;-80
2023/09/24 03:39:14;;;;;;;36.10;32.85;;;11.00;99.90;;;;;;6209043;23;20012;-80
2023/09/24 03:41:39;;;;;;;43.83;40.22;;;10.30;99.90;;;;;;6209191;23;20039;-80
2023/09/24 03:44:05;;;;;;;40.55;36.42;;;10.30;99.90;;;;;;6184093;23;20053;-80
2023/09/24 03:46:31;;;;;;;36.92;34.17;;;10.20;99.90;;;;;;6211069;23;20035;-80
2023/09/24 03:48:56;;;;;;;38.78;35.80;;;10.30;99.90;;;;;;6208654;23;20008;-79
2023/09/24 03:51:22;;;;;;;41.78;38.85;;;10.20;99.90;;;;;;6208925;23;20016;-80
2023/09/24 03:53:48;;;;;;;43.70;40.25;;;10.20;99.90;;;;;;6209285;23;20135;-80
2023/09/24 03:56:14;;;;;;;43.08;39.58;;;10.20;99.90;;;;;;6209283;23;20439;-80
2023/09/24 03:58:39;;;;;;;35.67;32.60;;;10.20;99.90;;;;;;6209222;23;20071;-80
2023/09/24 04:01:09;;;;;;;46.30;42.88;;;10.20;99.90;;;;;;6184351;23;20016;-80
2023/09/24 04:03:36;;;;;;;40.00;36.80;;;10.20;99.90;;;;;;6208609;23;20015;-79
2023/09/24 04:06:07;;;;;;;48.63;45.00;;;10.20;99.90;;;;;;6234818;23;20067;-80
2023/09/24 04:08:33;;;;;;;45.75;42.35;;;10.10;99.90;;;;;;6184112;23;20062;-80
2023/09/24 04:10:59;;;;;;;44.70;41.20;;;10.10;99.90;;;;;;6209225;23;20089;-80
2023/09/24 04:13:24;;;;;;;36.15;33.35;;;10.10;99.90;;;;;;6234150;23;20032;-80
2023/09/24 04:15:52;;;;;;;48.38;44.50;;;10.10;99.90;;;;;;6238818;23;20442;-81
2023/09/24 04:18:19;;;;;;;45.10;41.78;;;10.00;99.90;;;;;;6238559;23;20024;-80
2023/09/24 04:20:45;;;;;;;47.92;44.33;;;10.00;99.90;;;;;;6213781;23;20016;-80
2023/09/24 04:23:11;;;;;;;38.03;35.15;;;10.00;99.90;;;;;;6213956;23;20020;-80
2023/09/24 04:25:37;;;;;;;44.20;41.13;;;10.00;99.90;;;;;;6213738;23;20019;-80
2023/09/24 04:28:04;;;;;;;45.15;41.90;;;9.90;99.90;;;;;;6213635;23;20012;-80
2023/09/24 04:30:29;;;;;;;47.40;43.67;;;9.90;99.90;;;;;;6214054;23;20020;-80
2023/09/24 04:32:57;;;;;;;45.17;41.60;;;9.90;99.90;;;;;;6213096;23;20461;-80
2023/09/24 04:35:23;;;;;;;46.05;42.38;;;9.90;99.90;;;;;;6213756;23;20012;-80
2023/09/24 04:37:51;;;;;;;48.10;44.30;;;9.90;99.90;;;;;;6213827;23;20020;-80
2023/09/24 04:40:17;;;;;;;34.88;31.33;;;9.80;99.90;;;;;;6213378;23;20438;-80
2023/09/24 04:42:45;;;;;;;47.20;43.60;;;9.80;99.90;;;;;;6213918;23;20072;-80
2023/09/24 04:45:12;;;;;;;44.58;41.15;;;9.90;99.90;;;;;;6213516;23;20425;-80
2023/09/24 04:47:39;;;;;;;46.30;42.92;;;9.80;99.90;;;;;;6240114;23;20012;-80
2023/09/24 04:50:06;;;;;;;41.50;38.35;;;10.00;99.90;;;;;;6213826;23;20083;-81
2023/09/24 04:52:33;;;;;;;47.70;43.85;;;9.70;99.90;;;;;;6240548;23;20012;-80
2023/09/24 04:54:59;;;;;;;44.17;40.83;;;9.70;99.90;;;;;;6213469;23;20455;-80
2023/09/24 04:57:25;;;;;;;49.75;45.70;;;9.70;99.90;;;;;;6213632;23;20066;-80
2023/09/24 04:59:53;;;;;;;45.55;42.08;;;9.70;99.90;;;;;;6213417;23;20016;-80
2023/09/24 05:02:21;;;;;;;49.30;45.53;;;9.80;99.90;;;;;;6212918;23;20012;-80
2023/09/24 05:04:48;;;;;;;42.70;39.28;;;9.70;99.90;;;;;;6240509;23;20019;-80
2023/09/24 05:07:13;;;;;;;53.47;49.17;;;9.70;99.90;;;;;;6213365;23;20009;-80
2023/09/24 05:09:39;;;;;;;44.15;40.50;;;9.60;99.90;;;;;;6213417;23;20349;-81
2023/09/24 05:12:05;;;;;;;49.70;45.95;;;9.70;99.90;;;;;;6240097;23;20058;-80
2023/09/24 05:14:30;;;;;;;40.45;37.05;;;9.60;99.90;;;;;;6212889;23;20016;-81
2023/09/24 05:16:56;;;;;;;53.05;49.35;;;10.00;99.90;;;;;;6213531;23;20016;-80
2023/09/24 05:19:22;;;;;;;48.13;43.92;;;9.60;99.90;;;;;;6243940;23;20061;-80
2023/09/24 05:21:48;;;;;;;43.15;39.15;;;9.60;99.90;;;;;;6189317;23;20012;-80
2023/09/24 05:24:14;;;;;;;46.33;42.63;;;10.20;99.90;;;;;;6188456;23;20015;-81
2023/09/24 05:26:40;;;;;;;49.35;45.67;;;9.60;99.90;;;;;;6213355;23;20088;-80
2023/09/24 05:29:06;;;;;;;48.33;44.33;;;9.60;99.90;;;;;;6215464;23;20051;-81
2023/09/24 05:31:32;;;;;;;42.30;38.72;;;9.60;99.90;;;;;;6188437;23;20012;-81
2023/09/24 05:33:58;;;;;;;48.97;44.88;;;9.60;99.90;;;;;;6238682;23;20008;-80
2023/09/24 05:36:24;;;;;;;43.92;39.70;;;9.70;99.90;;;;;;6213142;23;20043;-80
2023/09/24 05:38:50;;;;;;;50.28;46.03;;;10.00;99.90;;;;;;6237926;23;20019;-81
2023/09/24 05:41:16;;;;;;;50.58;46.45;;;9.80;99.90;;;;;;6212888;23;20607;-81
2023/09/24 05:43:44;;;;;;;42.90;39.33;;;10.30;99.90;;;;;;6212684;23;20019;-80
2023/09/24 05:46:11;;;;;;;49.70;45.80;;;9.70;99.90;;;;;;6240108;23;20073;-81
2023/09/24 05:48:37;;;;;;;50.08;46.00;;;9.70;99.90;;;;;;6213378;23;20016;-81
2023/09/24 05:51:07;;;;;;;48.08;44.45;;;9.80;99.90;;;;;;6213516;23;20023;-82
2023/09/24 05:53:33;;;;;;;51.47;47.65;;;9.80;99.90;;;;;;6213433;23;20074;-82
2023/09/24 05:56:01;;;;;;;41.50;37.80;;;9.80;99.90;;;;;;6213410;23;20285;-81
2023/09/24 05:58:26;;;;;;;51.92;47.75;;;9.90;99.90;;;;;;6189232;23;20459;-80
2023/09/24 06:00:56;;;;;;;50.13;46.13;;;9.90;99.90;;;;;;6190023;23;20016;-80
2023/09/24 06:03:22;;;;;;;49.78;45.45;;;10.00;99.90;;;;;;6214953;23;20574;-80
2023/09/24 06:05:48;;;;;;;42.97;39.65;;;9.30;99.90;;;;;;6190293;23;20008;-80
2023/09/24 06:08:14;;;;;;;48.95;45.00;;;9.30;99.90;;;;;;6214988;23;20043;-80
2023/09/24 06:10:46;;;;;;;43.28;39.38;;;10.50;99.90;;;;;;6240504;23;20016;-80
2023/09/24 06:13:15;;;;;;;56.80;51.88;;;10.10;99.90;;;;;;6214482;23;20497;-80
2023/09/24 06:15:42;;;;;;;52.58;48.67;;;10.30;99.90;;;;;;6175035;23;20028;-80
2023/09/24 06:18:09;;;;;;;45.20;41.38;;;10.10;99.90;;;;;;6211513;23;20013;-80
2023/09/24 06:20:43;;;;;;;47.25;43.40;;;10.10;99.90;;;;;;6209888;23;20013;-81
2023/09/24 06:23:10;;;;;;;45.75;42.00;;;9.30;99.90;;;;;;6160132;23;20020;-80
2023/09/24 06:25:36;;;;;;;48.90;44.53;;;10.10;99.90;;;;;;6184807;23;20083;-80
2023/09/24 06:28:04;;;;;;;45.00;41.22;;;10.10;99.90;;;;;;6209274;23;20044;-80
2023/09/24 06:30:30;;;;;;;45.25;41.25;;;10.20;99.90;;;;;;6184730;23;20091;-81
2023/09/24 06:32:56;;;;;;;41.85;38.40;;;10.20;99.90;;;;;;6184571;23;20016;-80
2023/09/24 06:35:22;;;;;;;45.42;41.35;;;10.20;99.90;;;;;;6209720;23;20021;-81
2023/09/24 06:37:48;;;;;;;45.83;41.85;;;10.30;99.90;;;;;;6158988;23;20012;-80
2023/09/24 06:40:14;;;;;;;47.55;43.53;;;10.40;99.90;;;;;;6184535;23;20089;-81
2023/09/24 06:42:40;;;;;;;44.13;40.03;;;10.60;99.90;;;;;;6183425;23;20008;-80
2023/09/24 06:45:08;;;;;;;40.75;37.30;;;10.70;99.90;;;;;;6184369;23;20015;-81
2023/09/24 06:47:35;;;;;;;36.60;33.47;;;10.80;99.90;;;;;;6184424;23;20067;-80
2023/09/24 06:50:01;;;;;;;41.33;37.50;;;10.90;99.90;;;;;;6183906;23;20484;-80
2023/09/24 06:52:30;;;;;;;43.88;39.92;;;11.10;99.90;;;;;;6209211;23;20024;-80
2023/09/24 06:54:56;;;;;;;38.22;35.22;;;11.30;99.90;;;;;;6184518;23;20023;-80
2023/09/24 06:57:22;;;;;;;32.80;29.90;;;11.30;99.90;;;;;;6209120;23;20087;-80
2023/09/24 06:59:47;;;;;;;34.60;31.75;;;11.40;99.90;;;;;;6184134;23;20459;-80
2023/09/24 07:02:15;;;;;;;35.35;31.63;;;11.50;99.90;;;;;;6209078;23;20390;-80
2023/09/24 07:04:40;;;;;;;31.23;28.67;;;11.60;99.90;;;;;;6209046;23;20061;-80
2023/09/24 07:07:08;;;;;;;35.95;32.95;;;11.70;99.90;;;;;;6209159;23;20078;-81
2023/09/24 07:09:34;;;;;;;31.38;28.63;;;11.70;99.90;;;;;;6208965;23;20083;-80
2023/09/24 07:12:00;;;;;;;32.40;29.33;;;11.80;99.90;;;;;;6183467;23;20013;-80
2023/09/24 07:14:26;;;;;;;29.05;26.55;;;11.80;99.90;;;;;;6184468;23;20443;-80
2023/09/24 07:16:52;;;;;;;32.08;28.88;;;11.90;99.90;;;;;;6238832;23;20016;-80
2023/09/24 07:19:18;;;;;;;29.13;26.25;;;12.00;99.90;;;;;;6213841;23;20012;-80
2023/09/24 07:21:45;;;;;;;33.05;30.20;;;12.00;99.90;;;;;;6213964;23;20083;-80
2023/09/24 07:24:11;;;;;;;31.23;28.00;;;12.30;99.90;;;;;;6214137;23;20016;-80
2023/09/24 07:26:37;;;;;;;32.42;29.52;;;12.10;99.90;;;;;;6188562;23;20012;-80
2023/09/24 07:29:03;;;;;;;31.60;29.08;;;12.10;99.90;;;;;;6214199;23;20012;-80
2023/09/24 07:31:29;;;;;;;28.42;25.95;;;12.20;99.90;;;;;;6214243;23;20069;-80
2023/09/24 07:33:57;;;;;;;37.03;34.03;;;12.50;99.90;;;;;;6213814;23;20069;-81
2023/09/24 07:36:23;;;;;;;31.40;28.58;;;12.20;99.90;;;;;;6214227;23;20015;-80
2023/09/24 07:38:50;;;;;;;25.33;23.10;;;12.20;99.90;;;;;;6213949;23;20378;-81
2023/09/24 07:41:17;;;;;;;35.67;32.70;;;12.30;99.90;;;;;;6213310;23;20019;-80
2023/09/24 07:43:42;;;;;;;32.00;29.20;;;12.30;99.90;;;;;;6214012;23;20343;-81
2023/09/24 07:46:12;;;;;;;29.02;26.27;;;12.50;99.90;;;;;;6239122;23;20017;-81
2023/09/24 07:48:42;;;;;;;33.13;29.98;;;12.30;99.90;;;;;;6213725;23;20031;-80
2023/09/24 07:51:08;;;;;;;30.98;27.92;;;12.30;99.90;;;;;;6213651;23;20016;-80
2023/09/24 07:53:33;;;;;;;26.77;24.48;;;12.30;99.90;;;;;;6213668;23;20023;-80
2023/09/24 07:56:09;;;;;;;29.33;26.52;;;12.40;99.90;;;;;;6213146;23;20095;-80
2023/09/24 07:58:36;;;;;;;32.42;29.50;;;12.40;99.90;;;;;;6213561;23;20012;-81
2023/09/24 08:01:09;;;;;;;36.33;33.15;;;12.50;99.90;;;;;;6213637;23;20102;-80
2023/09/24 08:03:35;;;;;;;;;;;12.50;99.90;;;;;;6214001;23;20252;-80
2023/09/24 08:06:02;;;;;;;42.25;38.88;;;12.60;99.90;;;;;;6238699;23;19915;-81
2023/09/24 08:08:29;;;;;;;33.63;30.75;;;12.60;99.90;;;;;;6188201;23;20012;-81
2023/09/24 08:10:55;;;;;;;33.47;30.60;;;13.20;99.90;;;;;;6238729;23;20095;-80
2023/09/24 08:13:21;;;;;;;34.17;31.40;;;12.80;99.90;;;;;;6213780;23;20019;-80
2023/09/24 08:15:48;;;;;;;32.75;30.02;;;12.80;99.90;;;;;;6213621;23;20019;-80
2023/09/24 08:18:15;;;;;;;16.77;15.10;;;12.80;99.90;;;;;;6238791;23;20032;-80
2023/09/24 08:20:41;;;;;;;34.30;31.30;;;12.90;99.90;;;;;;6238390;23;20024;-81
2023/09/24 08:23:07;;;;;;;27.05;24.83;;;12.90;99.90;;;;;;6213133;23;20043;-81
2023/09/24 08:25:34;;;;;;;29.42;27.02;;;13.00;99.90;;;;;;6213438;23;20022;-80
2023/09/24 08:28:01;;;;;;;35.95;33.33;;;13.00;99.90;;;;;;6213380;23;20016;-81
2023/09/24 08:30:31;;;;;;;24.95;22.65;;;13.10;99.90;;;;;;6238730;23;20065;-81
2023/09/24 08:32:58;;;;;;;21.48;16.08;;;13.60;99.90;;;;;;6188116;23;20023;-80
2023/09/24 08:35:24;;;;;;;25.13;22.90;;;13.20;99.90;;;;;;6188512;23;20019;-81
2023/09/24 08:37:50;;;;;;;21.55;15.73;;;13.30;99.90;;;;;;6212643;23;20156;-81
2023/09/24 08:40:16;;;;;;;30.08;27.15;;;13.30;99.90;;;;;;6213125;23;20024;-80
2023/09/24 08:42:47;;;;;;;21.35;19.33;;;13.30;99.90;;;;;;6213097;23;20039;-81
2023/09/24 08:45:19;;;;;;;26.08;23.85;;;13.40;99.90;;;;;;6213343;23;20431;-81
2023/09/24 08:47:46;;;;;;;17.38;15.70;;;13.50;99.90;;;;;;6239955;23;20008;-81
2023/09/24 08:50:12;;;;;;;25.38;23.10;;;13.50;99.90;;;;;;6213056;23;20016;-81
2023/09/24 08:52:43;;;;;;;21.00;18.38;;;13.60;99.90;;;;;;6212742;23;20016;-80
2023/09/24 08:55:10;;;;;;;27.80;25.80;;;13.60;99.90;;;;;;6241631;23;20008;-81
2023/09/24 08:57:43;;;;;;;17.40;14.13;;;13.70;99.90;;;;;;6213219;23;20012;-81
2023/09/24 09:00:11;;;;;;;22.55;20.58;;;13.70;99.90;;;;;;6188134;23;20018;-81
2023/09/24 09:02:39;;;;;;;21.08;18.95;;;13.80;99.90;;;;;;6213043;23;20012;-80
2023/09/24 09:05:07;;;;;;;13.13;11.65;;;13.90;99.90;;;;;;6213267;23;20012;-81
2023/09/24 09:07:34;;;;;;;24.20;22.17;;;13.90;99.90;;;;;;6212853;23;20039;-81
2023/09/24 09:10:02;;;;;;;20.52;18.65;;;14.00;99.90;;;;;;6213137;23;20024;-81
2023/09/24 09:12:28;;;;;;;20.48;16.38;;;14.00;99.90;;;;;;6212517;23;20023;-80
2023/09/24 09:14:55;;;;;;;25.27;23.10;;;14.10;99.90;;;;;;6231996;23;20374;-79
2023/09/24 09:17:21;;;;;;;21.15;19.15;;;14.30;99.90;;;;;;6217858;23;20493;-79
2023/09/24 09:19:59;;;;;;;21.13;19.30;;;14.30;99.90;;;;;;6187205;23;20015;-79
2023/09/24 09:22:29;;;;;;;23.05;21.17;;;14.30;99.90;;;;;;6211782;23;20023;-79
2023/09/24 09:25:08;;;;;;;26.83;24.88;;;14.40;99.90;;;;;;6238125;23;20015;-81
2023/09/24 09:27:39;;;;;;;12.82;11.52;;;14.50;99.90;;;;;;6213050;23;20024;-80
2023/09/24 09:30:19;;;;;;;18.55;16.58;;;14.60;99.90;;;;;;6213446;23;20023;-80
2023/09/24 09:32:47;;;;;;;20.42;18.55;;;14.70;99.90;;;;;;6239638;23;20015;-80
2023/09/24 09:35:14;;;;;;;22.50;20.58;;;14.80;99.90;;;;;;6239691;23;20019;-79
2023/09/24 09:37:42;;;;;;;15.77;14.32;;;14.90;99.90;;;;;;6212758;23;20113;-81
2023/09/24 09:40:11;;;;;;;16.55;15.10;;;15.00;99.90;;;;;;6212607;23;20083;-81
2023/09/24 09:42:42;;;;;;;16.75;15.02;;;15.00;99.90;;;;;;6215010;23;20351;-82
2023/09/24 09:45:09;;;;;;;16.30;13.88;;;15.10;99.90;;;;;;6241183;23;20658;-83
2023/09/24 09:48:00;;;;;;;13.73;12.40;;;15.20;99.90;;;;;;6238247;23;20039;-83
2023/09/24 09:50:27;;;;;;;16.92;14.95;;;15.30;99.90;;;;;;6225079;23;20016;-83
2023/09/24 09:52:54;;;;;;;16.20;14.15;;;15.50;99.90;;;;;;6212755;23;20008;-83
2023/09/24 09:55:21;;;;;;;12.43;11.13;;;15.60;99.90;;;;;;6187937;23;20020;-84
2023/09/24 09:57:47;;;;;;;12.63;9.38;;;15.60;99.90;;;;;;6187751;23;20024;-83
2023/09/24 10:00:16;;;;;;;14.40;13.07;;;15.60;99.90;;;;;;6238148;23;20012;-83
2023/09/24 10:02:43;;;;;;;17.15;15.73;;;15.70;99.90;;;;;;6212444;23;20040;-83
2023/09/24 10:05:11;;;;;;;11.75;10.70;;;15.90;99.90;;;;;;6212374;23;20012;-83
2023/09/24 10:07:38;;;;;;;14.05;12.82;;;16.00;99.90;;;;;;6187881;23;20012;-82
2023/09/24 10:10:30;;;;;;;12.73;11.32;;;16.10;99.90;;;;;;6213013;23;20450;-83
2023/09/24 10:12:55;;;;;;;14.82;13.40;;;16.20;99.90;;;;;;6202559;23;20463;-83
2023/09/24 10:15:26;;;;;;;13.02;11.50;;;16.30;99.90;;;;;;6212770;23;20020;-83
2023/09/24 10:18:09;;;;;;;13.52;11.35;;;16.30;99.90;;;;;;6212626;23;20012;-83
2023/09/24 10:20:50;;;;;;;11.52;8.00;;;16.40;99.90;;;;;;6237547;23;20016;-83
2023/09/24 10:23:28;;;;;;;10.57;8.85;;;16.50;99.90;;;;;;6239706;23;20019;-81
2023/09/24 10:25:54;;;;;;;11.10;8.90;;;16.50;99.90;;;;;;6238423;23;20039;-80
2023/09/24 10:28:19;;;;;;;10.05;6.78;;;16.50;99.90;;;;;;6238066;23;20082;-80
2023/09/24 10:31:05;;;;;;;10.90;6.78;;;16.50;99.90;;;;;;6238169;23;20078;-80
2023/09/24 10:33:53;;;;;;;14.13;12.10;;;16.60;99.90;;;;;;6211830;23;20087;-81
2023/09/24 10:36:30;;;;;;;11.73;9.27;;;16.70;99.90;;;;;;6211984;23;20020;-81
2023/09/24 10:39:13;;;;;;;9.30;7.38;;;16.80;99.90;;;;;;6212271;23;20398;-80
2023/09/24 10:42:07;;;;;;;9.65;8.57;;;16.70;99.90;;;;;;6211975;23;20780;-80
2023/09/24 10:44:35;;;;;;;11.65;10.38;;;16.90;99.90;;;;;;6213815;23;20086;-83
2023/09/24 10:47:23;;;;;;;11.55;9.65;;;17.00;99.90;;;;;;6188886;23;20020;-80
2023/09/24 10:49:49;;;;;;;13.48;9.77;;;17.00;99.90;;;;;;6239046;23;20419;-81
2023/09/24 10:52:15;;;;;;;8.88;6.57;;;17.10;99.90;;;;;;6214545;23;20711;-81
2023/09/24 10:54:45;;;;;;;10.60;9.38;;;17.20;99.90;;;;;;6239609;23;20012;-81
2023/09/24 10:57:23;;;;;;;9.32;6.97;;;17.20;99.90;;;;;;6189493;23;20039;-81
2023/09/24 10:59:48;;;;;;;10.85;8.77;;;17.30;99.90;;;;;;6239623;23;20066;-80
2023/09/24 11:02:15;;;;;;;10.27;6.47;;;17.40;99.90;;;;;;6214622;23;20012;-82
2023/09/24 11:04:41;;;;;;;10.88;6.40;;;17.50;99.90;;;;;;6214067;23;20518;-83
2023/09/24 11:07:14;;;;;;;10.18;7.78;;;17.50;99.90;;;;;;6214282;23;20023;-83
2023/09/24 11:09:49;;;;;;;10.48;4.75;;;17.50;99.90;;;;;;6214298;23;20031;-82
2023/09/24 11:12:15;;;;;;;9.65;4.32;;;17.60;99.90;;;;;;6213684;23;20012;-82
2023/09/24 11:14:40;;;;;;;12.02;6.57;;;17.60;99.90;;;;;;6239004;23;20023;-81
2023/09/24 11:17:06;;;;;;;10.50;4.60;;;17.70;99.90;;;;;;6211984;23;20435;-82
2023/09/24 11:19:46;;;;;;;7.75;5.22;;;17.70;99.90;;;;;;6187542;23;20036;-81
2023/09/24 11:22:26;;;;;;;9.48;4.80;;;17.70;99.90;;;;;;6236584;23;20062;-82
2023/09/24 11:25:13;;;;;;;7.20;5.75;;;17.80;99.90;;;;;;6234992;23;20320;-81
2023/09/24 11:27:47;;;;;;;8.07;6.25;;;17.80;99.90;;;;;;6185012;23;20461;-82
2023/09/24 11:30:15;;;;;;;8.10;6.35;;;17.90;99.90;;;;;;6211627;23;20470;-82
2023/09/24 11:32:42;;;;;;;10.13;6.88;;;18.00;99.90;;;;;;6211098;23;20043;-82
2023/09/24 11:35:13;;;;;;;9.63;4.90;;;18.10;99.90;;;;;;6237022;23;20030;-82
2023/09/24 11:38:01;;;;;;;10.50;7.35;;;18.10;99.90;;;;;;6211423;23;20439;-81
2023/09/24 11:40:32;;;;;;;11.55;7.63;;;18.20;99.90;;;;;;6186560;23;20459;-84
2023/09/24 11:43:01;;;;;;;6.90;5.68;;;18.20;99.90;;;;;;6212007;23;20038;-80
2023/09/24 11:45:50;;;;;;;6.57;5.47;;;18.30;99.90;;;;;;6236932;23;20549;-82
2023/09/24 11:48:21;;;;;;;7.43;4.07;;;18.40;99.90;;;;;;6186960;23;20473;-81
2023/09/24 11:50:52;;;;;;;9.00;4.40;;;18.50;99.90;;;;;;6186563;23;20398;-81
2023/09/24 11:53:20;;;;;;;8.48;5.80;;;18.50;99.90;;;;;;6211300;23;20021;-80
2023/09/24 11:55:48;;;;;;;8.48;3.97;;;18.40;99.90;;;;;;6211008;23;20019;-80
2023/09/24 11:58:14;;;;;;;9.05;6.55;;;18.60;99.90;;;;;;6236964;23;20012;-80
2023/09/24 12:00:42;;;;;;;8.23;5.47;;;18.60;99.90;;;;;;6236156;23;20019;-80
2023/09/24 12:03:08;;;;;;;7.43;5.38;;;18.60;99.90;;;;;;6211502;23;20066;-81
2023/09/24 12:05:34;;;;;;;9.38;4.25;;;18.70;99.90;;;;;;6211851;23;20435;-80
2023/09/24 12:08:02;;;;;;;7.28;6.57;;;18.60;99.90;;;;;;6237131;23;20469;-79
2023/09/24 12:10:28;;;;;;;8.93;5.78;;;18.50;99.90;;;;;;6236916;23;20451;-79
2023/09/24 12:12:53;;;;;;;6.85;5.35;;;18.70;99.90;;;;;;6236740;23;20023;-79
2023/09/24 12:15:19;;;;;;;7.78;5.68;;;18.80;99.90;;;;;;6163548;23;1117510;-80
2023/09/24 12:17:46;;;;;;;6.03;5.00;;;18.80;99.90;;;;;;6238091;23;20024;-80
2023/09/24 12:20:13;;;;;;;7.78;6.97;;;18.80;99.90;;;;;;6213431;23;20091;-84
2023/09/24 12:22:41;;;;;;;6.97;4.38;;;18.80;99.90;;;;;;6213325;23;20023;-80
2023/09/24 12:25:08;;;;;;;8.90;4.68;;;18.90;99.90;;;;;;6240164;23;20012;-80
2023/09/24 12:27:33;;;;;;;9.90;4.30;;;18.90;99.90;;;;;;6241326;23;20012;-80
2023/09/24 12:29:59;;;;;;;6.80;3.97;;;19.00;99.90;;;;;;6212732;23;20405;-83
2023/09/24 12:32:26;;;;;;;8.23;5.72;;;19.00;99.90;;;;;;6213671;23;20490;-83
2023/09/24 12:34:51;;;;;;;9.77;5.35;;;19.10;99.90;;;;;;6213151;23;20039;-83
2023/09/24 12:37:17;;;;;;;6.75;3.65;;;19.20;99.90;;;;;;6213166;23;20066;-85